sensor_id;sensor_type;location;lat;lon;timestamp;pressure;altitude;pressure_sealevel;temperature;humidity
83697;BME280;73677;54.530;18.484;2023-12-14T00:02:12;100489.66;;;2.79;78.19
83697;BME280;73677;54.530;18.484;2023-12-14T00:04:41;100501.47;;;2.86;78.54
83697;BME280;73677;54.530;18.484;2023-12-14T00:07:10;100496.22;;;2.84;78.28
83697;BME280;73677;54.530;18.484;2023-12-14T00:09:41;100480.19;;;2.75;78.87
83697;BME280;73677;54.530;18.484;2023-12-14T00:12:10;100507.34;;;2.89;78.05
83697;BME280;73677;54.530;18.484;2023-12-14T00:14:38;100503.50;;;2.84;76.87
83697;BME280;73677;54.530;18.484;2023-12-14T00:17:07;100507.06;;;2.84;77.01
83697;BME280;73677;54.530;18.484;2023-12-14T00:19:37;100513.81;;;2.88;75.40
83697;BME280;73677;54.530;18.484;2023-12-14T00:22:06;100510.81;;;2.83;75.37
83697;BME280;73677;54.530;18.484;2023-12-14T00:24:34;100509.59;;;2.86;75.34
83697;BME280;73677;54.530;18.484;2023-12-14T00:27:04;100518.38;;;2.88;75.74
83697;BME280;73677;54.530;18.484;2023-12-14T00:29:32;100523.53;;;2.83;75.37
83697;BME280;73677;54.530;18.484;2023-12-14T00:32:01;100500.78;;;2.69;75.71
83697;BME280;73677;54.530;18.484;2023-12-14T00:34:30;100504.50;;;2.68;76.06
83697;BME280;73677;54.530;18.484;2023-12-14T00:37:00;100530.00;;;2.82;76.80
83697;BME280;73677;54.530;18.484;2023-12-14T00:39:28;100529.25;;;2.88;76.75
83697;BME280;73677;54.530;18.484;2023-12-14T00:41:57;100536.59;;;2.87;76.88
83697;BME280;73677;54.530;18.484;2023-12-14T00:44:26;100535.06;;;2.85;75.94
83697;BME280;73677;54.530;18.484;2023-12-14T00:46:55;100539.81;;;2.83;76.84
83697;BME280;73677;54.530;18.484;2023-12-14T00:49:25;100545.25;;;2.83;76.45
83697;BME280;73677;54.530;18.484;2023-12-14T00:51:55;100544.22;;;2.84;76.70
83697;BME280;73677;54.530;18.484;2023-12-14T00:54:25;100565.75;;;2.85;77.06
83697;BME280;73677;54.530;18.484;2023-12-14T00:56:53;100555.47;;;2.81;76.20
83697;BME280;73677;54.530;18.484;2023-12-14T00:59:22;100556.47;;;2.80;77.08
83697;BME280;73677;54.530;18.484;2023-12-14T01:01:51;100550.47;;;2.70;76.17
83697;BME280;73677;54.530;18.484;2023-12-14T01:04:19;100559.09;;;2.88;75.52
83697;BME280;73677;54.530;18.484;2023-12-14T01:06:48;100553.34;;;2.91;75.16
83697;BME280;73677;54.530;18.484;2023-12-14T01:09:17;100555.75;;;2.86;75.51
83697;BME280;73677;54.530;18.484;2023-12-14T01:11:47;100560.03;;;2.80;75.83
83697;BME280;73677;54.530;18.484;2023-12-14T01:14:15;100556.00;;;2.76;75.12
83697;BME280;73677;54.530;18.484;2023-12-14T01:16:44;100563.94;;;2.78;75.12
83697;BME280;73677;54.530;18.484;2023-12-14T01:19:13;100564.25;;;2.83;75.35
83697;BME280;73677;54.530;18.484;2023-12-14T01:21:42;100558.91;;;2.75;75.10
83697;BME280;73677;54.530;18.484;2023-12-14T01:24:11;100558.22;;;2.73;74.77
83697;BME280;73677;54.530;18.484;2023-12-14T01:26:39;100562.59;;;2.82;75.13
83697;BME280;73677;54.530;18.484;2023-12-14T01:29:09;100570.53;;;2.83;75.65
83697;BME280;73677;54.530;18.484;2023-12-14T01:31:39;100550.28;;;2.71;75.50
83697;BME280;73677;54.530;18.484;2023-12-14T01:34:07;100587.66;;;2.84;75.19
83697;BME280;73677;54.530;18.484;2023-12-14T01:36:39;100584.94;;;2.84;75.46
83697;BME280;73677;54.530;18.484;2023-12-14T01:39:07;100582.44;;;2.82;75.58
83697;BME280;73677;54.530;18.484;2023-12-14T01:41:36;100584.94;;;2.84;75.88
83697;BME280;73677;54.530;18.484;2023-12-14T01:44:05;100581.59;;;2.82;77.00
83697;BME280;73677;54.530;18.484;2023-12-14T01:46:35;100582.66;;;2.73;77.71
83697;BME280;73677;54.530;18.484;2023-12-14T01:49:04;100578.28;;;2.72;76.47
83697;BME280;73677;54.530;18.484;2023-12-14T01:51:32;100568.88;;;2.60;76.92
83697;BME280;73677;54.530;18.484;2023-12-14T01:54:02;100581.50;;;2.67;76.68
83697;BME280;73677;54.530;18.484;2023-12-14T01:56:31;100587.22;;;2.72;76.65
83697;BME280;73677;54.530;18.484;2023-12-14T01:58:59;100575.72;;;2.70;76.10
83697;BME280;73677;54.530;18.484;2023-12-14T02:01:38;100586.22;;;2.73;76.66
83697;BME280;73677;54.530;18.484;2023-12-14T02:04:08;100583.03;;;2.70;76.82
83697;BME280;73677;54.530;18.484;2023-12-14T02:06:37;100582.56;;;2.66;77.44
83697;BME280;73677;54.530;18.484;2023-12-14T02:09:06;100586.03;;;2.75;76.37
83697;BME280;73677;54.530;18.484;2023-12-14T02:11:34;100584.72;;;2.71;76.53
83697;BME280;73677;54.530;18.484;2023-12-14T02:14:04;100584.53;;;2.72;76.22
83697;BME280;73677;54.530;18.484;2023-12-14T02:16:33;100581.63;;;2.74;76.77
83697;BME280;73677;54.530;18.484;2023-12-14T02:19:03;100585.38;;;2.73;77.01
83697;BME280;73677;54.530;18.484;2023-12-14T02:21:32;100588.75;;;2.75;76.91
83697;BME280;73677;54.530;18.484;2023-12-14T02:24:03;100588.47;;;2.70;77.48
83697;BME280;73677;54.530;18.484;2023-12-14T02:26:32;100587.75;;;2.76;76.91
83697;BME280;73677;54.530;18.484;2023-12-14T02:29:00;100593.16;;;2.76;77.15
83697;BME280;73677;54.530;18.484;2023-12-14T02:31:29;100592.59;;;2.58;77.60
83697;BME280;73677;54.530;18.484;2023-12-14T02:33:57;100607.88;;;2.59;78.02
83697;BME280;73677;54.530;18.484;2023-12-14T02:36:26;100598.88;;;2.58;77.93
83697;BME280;73677;54.530;18.484;2023-12-14T02:38:55;100577.13;;;2.43;78.56
83697;BME280;73677;54.530;18.484;2023-12-14T02:41:25;100589.78;;;2.51;79.26
83697;BME280;73677;54.530;18.484;2023-12-14T02:43:53;100592.00;;;2.47;79.71
83697;BME280;73677;54.530;18.484;2023-12-14T02:46:22;100599.19;;;2.40;80.33
83697;BME280;73677;54.530;18.484;2023-12-14T02:48:50;100591.41;;;2.37;80.03
83697;BME280;73677;54.530;18.484;2023-12-14T02:51:19;100593.81;;;2.32;80.87
83697;BME280;73677;54.530;18.484;2023-12-14T02:53:48;100588.69;;;2.15;80.63
83697;BME280;73677;54.530;18.484;2023-12-14T02:56:17;100595.53;;;2.25;81.11
83697;BME280;73677;54.530;18.484;2023-12-14T02:58:46;100600.34;;;2.15;81.85
83697;BME280;73677;54.530;18.484;2023-12-14T03:01:19;100601.09;;;2.01;82.44
83697;BME280;73677;54.530;18.484;2023-12-14T03:03:47;100599.06;;;2.03;82.35
83697;BME280;73677;54.530;18.484;2023-12-14T03:06:16;100604.56;;;1.87;83.27
83697;BME280;73677;54.530;18.484;2023-12-14T03:08:45;100605.41;;;1.87;83.44
83697;BME280;73677;54.530;18.484;2023-12-14T03:11:21;100603.00;;;1.92;83.09
83697;BME280;73677;54.530;18.484;2023-12-14T03:13:51;100606.72;;;1.91;82.82
83697;BME280;73677;54.530;18.484;2023-12-14T03:16:20;100594.06;;;1.84;83.55
83697;BME280;73677;54.530;18.484;2023-12-14T03:18:49;100605.41;;;1.87;83.56
83697;BME280;73677;54.530;18.484;2023-12-14T03:21:20;100607.91;;;1.89;83.17
83697;BME280;73677;54.530;18.484;2023-12-14T03:23:49;100608.66;;;1.75;83.60
83697;BME280;73677;54.530;18.484;2023-12-14T03:26:17;100604.44;;;1.72;84.73
83697;BME280;73677;54.530;18.484;2023-12-14T03:28:46;100600.75;;;1.65;84.51
83697;BME280;73677;54.530;18.484;2023-12-14T03:31:16;100599.56;;;1.59;85.09
83697;BME280;73677;54.530;18.484;2023-12-14T03:33:45;100598.06;;;1.57;85.24
83697;BME280;73677;54.530;18.484;2023-12-14T03:36:14;100605.34;;;1.56;84.55
83697;BME280;73677;54.530;18.484;2023-12-14T03:38:42;100601.28;;;1.60;84.70
83697;BME280;73677;54.530;18.484;2023-12-14T03:41:11;100612.44;;;1.57;84.97
83697;BME280;73677;54.530;18.484;2023-12-14T03:43:40;100612.78;;;1.54;84.83
83697;BME280;73677;54.530;18.484;2023-12-14T03:46:09;100612.44;;;1.57;84.67
83697;BME280;73677;54.530;18.484;2023-12-14T03:48:38;100608.88;;;1.65;84.61
83697;BME280;73677;54.530;18.484;2023-12-14T03:51:07;100612.06;;;1.68;84.36
83697;BME280;73677;54.530;18.484;2023-12-14T03:53:36;100563.22;;;1.46;84.52
83697;BME280;73677;54.530;18.484;2023-12-14T03:56:05;100615.44;;;1.70;84.40
83697;BME280;73677;54.530;18.484;2023-12-14T03:58:34;100612.38;;;1.74;84.35
83697;BME280;73677;54.530;18.484;2023-12-14T04:01:03;100623.22;;;1.74;84.16
83697;BME280;73677;54.530;18.484;2023-12-14T04:03:32;100617.47;;;1.77;84.57
83697;BME280;73677;54.530;18.484;2023-12-14T04:06:02;100616.13;;;1.73;84.52
83697;BME280;73677;54.530;18.484;2023-12-14T04:08:31;100615.94;;;1.74;83.66
83697;BME280;73677;54.530;18.484;2023-12-14T04:11:00;100622.38;;;1.73;83.67
83697;BME280;73677;54.530;18.484;2023-12-14T04:13:28;100629.28;;;1.84;83.56
83697;BME280;73677;54.530;18.484;2023-12-14T04:15:57;100628.63;;;1.82;83.51
83697;BME280;73677;54.530;18.484;2023-12-14T04:18:26;100625.91;;;1.82;83.84
83697;BME280;73677;54.530;18.484;2023-12-14T04:20:56;100628.09;;;1.86;83.26
83697;BME280;73677;54.530;18.484;2023-12-14T04:23:26;100632.66;;;1.86;83.58
83697;BME280;73677;54.530;18.484;2023-12-14T04:25:54;100630.28;;;1.91;83.77
83697;BME280;73677;54.530;18.484;2023-12-14T04:28:23;100628.94;;;1.87;84.15
83697;BME280;73677;54.530;18.484;2023-12-14T04:30:52;100635.91;;;1.81;83.34
83697;BME280;73677;54.530;18.484;2023-12-14T04:33:20;100632.56;;;1.71;83.82
83697;BME280;73677;54.530;18.484;2023-12-14T04:35:49;100625.97;;;1.65;83.84
83697;BME280;73677;54.530;18.484;2023-12-14T04:38:18;100632.03;;;1.76;83.39
83697;BME280;73677;54.530;18.484;2023-12-14T04:40:48;100633.72;;;1.77;83.85
83697;BME280;73677;54.530;18.484;2023-12-14T04:43:16;100635.09;;;1.73;83.46
83697;BME280;73677;54.530;18.484;2023-12-14T04:45:45;100643.34;;;1.79;83.36
83697;BME280;73677;54.530;18.484;2023-12-14T04:48:13;100639.31;;;1.83;83.76
83697;BME280;73677;54.530;18.484;2023-12-14T04:50:42;100628.63;;;1.74;83.71
83697;BME280;73677;54.530;18.484;2023-12-14T04:53:11;100644.25;;;1.72;83.88
83697;BME280;73677;54.530;18.484;2023-12-14T04:55:40;100641.66;;;1.78;83.30
83697;BME280;73677;54.530;18.484;2023-12-14T04:58:12;100640.31;;;1.74;83.07
83697;BME280;73677;54.530;18.484;2023-12-14T05:00:41;100643.56;;;1.78;82.73
83697;BME280;73677;54.530;18.484;2023-12-14T05:03:09;100638.31;;;1.76;82.92
83697;BME280;73677;54.530;18.484;2023-12-14T05:05:39;100646.59;;;1.83;83.19
83697;BME280;73677;54.530;18.484;2023-12-14T05:08:07;100660.97;;;1.83;83.29
83697;BME280;73677;54.530;18.484;2023-12-14T05:10:36;100662.47;;;1.86;83.45
83697;BME280;73677;54.530;18.484;2023-12-14T05:13:05;100669.44;;;1.80;82.94
83697;BME280;73677;54.530;18.484;2023-12-14T05:15:35;100669.13;;;1.75;82.64
83697;BME280;73677;54.530;18.484;2023-12-14T05:18:03;100671.47;;;1.78;83.06
83697;BME280;73677;54.530;18.484;2023-12-14T05:20:33;100679.44;;;1.80;82.63
83697;BME280;73677;54.530;18.484;2023-12-14T05:23:02;100677.56;;;1.80;82.16
83697;BME280;73677;54.530;18.484;2023-12-14T05:25:31;100683.16;;;1.87;82.55
83697;BME280;73677;54.530;18.484;2023-12-14T05:28:00;100689.63;;;1.78;82.99
83697;BME280;73677;54.530;18.484;2023-12-14T05:30:29;100685.91;;;1.70;82.94
83697;BME280;73677;54.530;18.484;2023-12-14T05:32:58;100693.19;;;1.70;83.41
83697;BME280;73677;54.530;18.484;2023-12-14T05:35:27;100692.31;;;1.69;83.54
83697;BME280;73677;54.530;18.484;2023-12-14T05:37:56;100693.50;;;1.75;82.83
83697;BME280;73677;54.530;18.484;2023-12-14T05:40:25;100687.41;;;1.73;81.99
83697;BME280;73677;54.530;18.484;2023-12-14T05:42:54;100690.16;;;1.65;81.55
83697;BME280;73677;54.530;18.484;2023-12-14T05:45:23;100690.66;;;1.60;81.37
83697;BME280;73677;54.530;18.484;2023-12-14T05:47:52;100685.75;;;1.64;81.29
83697;BME280;73677;54.530;18.484;2023-12-14T05:50:22;100695.41;;;1.66;81.74
83697;BME280;73677;54.530;18.484;2023-12-14T05:52:51;100690.81;;;1.59;81.66
83697;BME280;73677;54.530;18.484;2023-12-14T05:55:20;100691.16;;;1.64;82.46
83697;BME280;73677;54.530;18.484;2023-12-14T05:57:49;100696.94;;;1.61;82.26
83697;BME280;73677;54.530;18.484;2023-12-14T06:00:18;100705.53;;;1.64;81.89
83697;BME280;73677;54.530;18.484;2023-12-14T06:02:47;100708.25;;;1.64;81.41
83697;BME280;73677;54.530;18.484;2023-12-14T06:05:16;100699.09;;;1.74;81.13
83697;BME280;73677;54.530;18.484;2023-12-14T06:07:46;100702.00;;;1.72;82.02
83697;BME280;73677;54.530;18.484;2023-12-14T06:10:15;100707.91;;;1.76;82.04
83697;BME280;73677;54.530;18.484;2023-12-14T06:12:43;100703.66;;;1.73;81.91
83697;BME280;73677;54.530;18.484;2023-12-14T06:15:12;100707.22;;;1.74;81.55
83697;BME280;73677;54.530;18.484;2023-12-14T06:17:41;100704.69;;;1.72;82.07
83697;BME280;73677;54.530;18.484;2023-12-14T06:20:11;100711.28;;;1.78;82.67
83697;BME280;73677;54.530;18.484;2023-12-14T06:22:40;100708.09;;;1.58;82.04
83697;BME280;73677;54.530;18.484;2023-12-14T06:25:10;100719.25;;;1.71;81.95
83697;BME280;73677;54.530;18.484;2023-12-14T06:27:39;100722.16;;;1.61;81.58
83697;BME280;73677;54.530;18.484;2023-12-14T06:30:08;100731.28;;;1.60;82.85
83697;BME280;73677;54.530;18.484;2023-12-14T06:32:38;100738.56;;;1.60;82.48
83697;BME280;73677;54.530;18.484;2023-12-14T06:35:07;100738.41;;;1.61;82.20
83697;BME280;73677;54.530;18.484;2023-12-14T06:37:36;100739.59;;;1.59;82.30
83697;BME280;73677;54.530;18.484;2023-12-14T06:40:06;100746.03;;;1.66;83.37
83697;BME280;73677;54.530;18.484;2023-12-14T06:42:36;100746.34;;;1.63;83.46
83697;BME280;73677;54.530;18.484;2023-12-14T06:45:06;100734.84;;;1.61;82.70
83697;BME280;73677;54.530;18.484;2023-12-14T06:47:35;100752.28;;;1.58;82.20
83697;BME280;73677;54.530;18.484;2023-12-14T06:50:04;100759.72;;;1.64;83.09
83697;BME280;73677;54.530;18.484;2023-12-14T06:52:33;100762.47;;;1.56;82.90
83697;BME280;73677;54.530;18.484;2023-12-14T06:55:02;100759.03;;;1.62;81.94
83697;BME280;73677;54.530;18.484;2023-12-14T06:57:30;100753.97;;;1.76;82.24
83697;BME280;73677;54.530;18.484;2023-12-14T07:00:00;100763.47;;;1.72;82.63
83697;BME280;73677;54.530;18.484;2023-12-14T07:02:29;100776.00;;;1.73;81.42
83697;BME280;73677;54.530;18.484;2023-12-14T07:04:58;100778.19;;;1.77;82.28
83697;BME280;73677;54.530;18.484;2023-12-14T07:07:27;100781.72;;;1.86;82.26
83697;BME280;73677;54.530;18.484;2023-12-14T07:09:55;100774.63;;;1.93;81.76
83697;BME280;73677;54.530;18.484;2023-12-14T07:12:24;100783.09;;;1.82;82.05
83697;BME280;73677;54.530;18.484;2023-12-14T07:14:53;100785.47;;;1.77;82.68
83697;BME280;73677;54.530;18.484;2023-12-14T07:17:24;100780.41;;;1.65;81.99
83697;BME280;73677;54.530;18.484;2023-12-14T07:19:53;100764.31;;;1.48;82.13
83697;BME280;73677;54.530;18.484;2023-12-14T07:22:26;100801.19;;;1.73;81.96
83697;BME280;73677;54.530;18.484;2023-12-14T07:24:55;100805.97;;;1.71;82.42
83697;BME280;73677;54.530;18.484;2023-12-14T07:27:27;100805.09;;;1.79;82.11
83697;BME280;73677;54.530;18.484;2023-12-14T07:29:55;100797.13;;;1.85;81.58
83697;BME280;73677;54.530;18.484;2023-12-14T07:32:25;100808.63;;;1.95;81.28
83697;BME280;73677;54.530;18.484;2023-12-14T07:34:54;100817.31;;;1.99;80.92
83697;BME280;73677;54.530;18.484;2023-12-14T07:37:23;100823.38;;;2.01;81.21
83697;BME280;73677;54.530;18.484;2023-12-14T07:39:52;100816.44;;;1.98;81.66
83697;BME280;73677;54.530;18.484;2023-12-14T07:42:21;100830.34;;;2.03;81.32
83697;BME280;73677;54.530;18.484;2023-12-14T07:44:49;100824.91;;;2.03;81.52
83697;BME280;73677;54.530;18.484;2023-12-14T07:47:18;100830.13;;;2.05;81.50
83697;BME280;73677;54.530;18.484;2023-12-14T07:49:48;100830.81;;;2.15;81.57
83697;BME280;73677;54.530;18.484;2023-12-14T07:52:17;100842.81;;;2.21;80.72
83697;BME280;73677;54.530;18.484;2023-12-14T07:54:46;100822.00;;;2.05;80.88
83697;BME280;73677;54.530;18.484;2023-12-14T07:57:15;100845.38;;;2.30;80.52
83697;BME280;73677;54.530;18.484;2023-12-14T07:59:44;100843.84;;;2.28;80.98
83697;BME280;73677;54.530;18.484;2023-12-14T08:02:13;100851.97;;;2.28;80.22
83697;BME280;73677;54.530;18.484;2023-12-14T08:04:42;100848.09;;;2.30;81.09
83697;BME280;73677;54.530;18.484;2023-12-14T08:07:12;100852.84;;;2.28;81.21
83697;BME280;73677;54.530;18.484;2023-12-14T08:09:41;100851.16;;;2.19;82.24
83697;BME280;73677;54.530;18.484;2023-12-14T08:12:10;100857.91;;;2.23;81.80
83697;BME280;73677;54.530;18.484;2023-12-14T08:14:38;100850.59;;;2.40;81.03
83697;BME280;73677;54.530;18.484;2023-12-14T08:17:11;100853.44;;;2.46;81.14
83697;BME280;73677;54.530;18.484;2023-12-14T08:19:39;100855.16;;;2.47;80.97
83697;BME280;73677;54.530;18.484;2023-12-14T08:22:08;100828.22;;;2.38;80.79
83697;BME280;73677;54.530;18.484;2023-12-14T08:24:40;100835.00;;;2.42;80.13
83697;BME280;73677;54.530;18.484;2023-12-14T08:27:09;100865.09;;;2.71;80.63
83697;BME280;73677;54.530;18.484;2023-12-14T08:29:38;100869.31;;;2.74;80.31
83697;BME280;73677;54.530;18.484;2023-12-14T08:32:07;100858.44;;;2.82;80.24
83697;BME280;73677;54.530;18.484;2023-12-14T08:34:35;100867.53;;;2.97;79.09
83697;BME280;73677;54.530;18.484;2023-12-14T08:37:04;100872.75;;;3.07;79.51
83697;BME280;73677;54.530;18.484;2023-12-14T08:39:33;100864.56;;;3.15;79.49
83697;BME280;73677;54.530;18.484;2023-12-14T08:42:04;100863.50;;;3.24;78.18
83697;BME280;73677;54.530;18.484;2023-12-14T08:44:32;100872.38;;;3.40;77.68
83697;BME280;73677;54.530;18.484;2023-12-14T08:47:01;100861.13;;;3.52;76.62
83697;BME280;73677;54.530;18.484;2023-12-14T08:49:31;100869.84;;;3.70;76.81
83697;BME280;73677;54.530;18.484;2023-12-14T08:52:00;100873.84;;;3.82;74.63
83697;BME280;73677;54.530;18.484;2023-12-14T08:54:31;100885.19;;;3.86;74.86
83697;BME280;73677;54.530;18.484;2023-12-14T08:57:00;100888.19;;;3.91;75.44
83697;BME280;73677;54.530;18.484;2023-12-14T08:59:30;100891.44;;;4.09;75.00
83697;BME280;73677;54.530;18.484;2023-12-14T09:01:59;100895.97;;;4.16;74.23
83697;BME280;73677;54.530;18.484;2023-12-14T09:04:28;100900.13;;;4.27;73.79
83697;BME280;73677;54.530;18.484;2023-12-14T09:06:57;100890.38;;;4.33;73.69
83697;BME280;73677;54.530;18.484;2023-12-14T09:09:26;100902.16;;;4.48;73.31
83697;BME280;73677;54.530;18.484;2023-12-14T09:11:56;100889.38;;;4.48;73.50
83697;BME280;73677;54.530;18.484;2023-12-14T09:14:24;100896.25;;;4.59;72.27
83697;BME280;73677;54.530;18.484;2023-12-14T09:16:54;100907.50;;;4.56;71.92
83697;BME280;73677;54.530;18.484;2023-12-14T09:19:24;100903.56;;;4.58;71.74
83697;BME280;73677;54.530;18.484;2023-12-14T09:21:52;100909.47;;;4.62;71.59
83697;BME280;73677;54.530;18.484;2023-12-14T09:24:21;100905.34;;;4.66;72.46
83697;BME280;73677;54.530;18.484;2023-12-14T09:26:50;100910.91;;;4.73;71.50
83697;BME280;73677;54.530;18.484;2023-12-14T09:29:18;100909.41;;;4.70;70.85
83697;BME280;73677;54.530;18.484;2023-12-14T09:31:47;100906.97;;;4.75;71.86
83697;BME280;73677;54.530;18.484;2023-12-14T09:34:19;100926.03;;;4.75;72.33
83697;BME280;73677;54.530;18.484;2023-12-14T09:36:48;100918.50;;;4.77;71.85
83697;BME280;73677;54.530;18.484;2023-12-14T09:39:16;100920.47;;;4.68;71.75
83697;BME280;73677;54.530;18.484;2023-12-14T09:41:47;100926.78;;;4.69;72.19
83697;BME280;73677;54.530;18.484;2023-12-14T09:44:15;100905.16;;;4.53;71.87
83697;BME280;73677;54.530;18.484;2023-12-14T09:46:45;100933.53;;;4.73;72.82
83697;BME280;73677;54.530;18.484;2023-12-14T09:49:16;100930.81;;;4.73;72.72
83697;BME280;73677;54.530;18.484;2023-12-14T09:51:47;100938.69;;;4.83;72.14
83697;BME280;73677;54.530;18.484;2023-12-14T09:54:16;100945.84;;;4.84;71.44
83697;BME280;73677;54.530;18.484;2023-12-14T09:56:48;100933.81;;;4.78;71.85
83697;BME280;73677;54.530;18.484;2023-12-14T09:59:16;100943.41;;;4.89;71.87
83697;BME280;73677;54.530;18.484;2023-12-14T10:01:45;100906.41;;;4.80;70.63
83697;BME280;73677;54.530;18.484;2023-12-14T10:04:15;100945.66;;;5.15;70.61
83697;BME280;73677;54.530;18.484;2023-12-14T10:06:45;100948.78;;;5.11;70.71
83697;BME280;73677;54.530;18.484;2023-12-14T10:09:22;100949.50;;;5.20;71.25
83697;BME280;73677;54.530;18.484;2023-12-14T10:12:02;100934.50;;;4.95;71.11
83697;BME280;73677;54.530;18.484;2023-12-14T10:14:31;100950.56;;;5.04;71.26
83697;BME280;73677;54.530;18.484;2023-12-14T10:17:14;100945.84;;;4.98;70.47
83697;BME280;73677;54.530;18.484;2023-12-14T10:19:44;100941.13;;;4.92;70.64
83697;BME280;73677;54.530;18.484;2023-12-14T10:22:14;100946.22;;;4.81;71.86
83697;BME280;73677;54.530;18.484;2023-12-14T10:24:46;100950.09;;;4.86;71.00
83697;BME280;73677;54.530;18.484;2023-12-14T10:27:16;100939.38;;;4.85;71.66
83697;BME280;73677;54.530;18.484;2023-12-14T10:29:44;100952.72;;;4.94;70.99
83697;BME280;73677;54.530;18.484;2023-12-14T10:32:14;100946.69;;;4.69;72.51
83697;BME280;73677;54.530;18.484;2023-12-14T10:34:42;100946.78;;;4.76;72.90
83697;BME280;73677;54.530;18.484;2023-12-14T10:37:12;100953.06;;;4.77;71.91
83697;BME280;73677;54.530;18.484;2023-12-14T10:39:42;100963.06;;;4.61;72.30
83697;BME280;73677;54.530;18.484;2023-12-14T10:42:13;100963.50;;;4.50;72.84
83697;BME280;73677;54.530;18.484;2023-12-14T10:44:50;100974.03;;;4.39;74.20
83697;BME280;73677;54.530;18.484;2023-12-14T10:47:23;100941.19;;;3.95;74.62
83697;BME280;73677;54.530;18.484;2023-12-14T10:49:52;100981.63;;;4.20;74.99
83697;BME280;73677;54.530;18.484;2023-12-14T10:52:23;100984.97;;;4.08;74.63
83697;BME280;73677;54.530;18.484;2023-12-14T10:54:54;100977.25;;;3.89;75.07
83697;BME280;73677;54.530;18.484;2023-12-14T10:57:26;100982.69;;;3.89;75.84
83697;BME280;73677;54.530;18.484;2023-12-14T10:59:58;100981.38;;;3.84;76.42
83697;BME280;73677;54.530;18.484;2023-12-14T11:02:28;100958.38;;;3.64;76.37
83697;BME280;73677;54.530;18.484;2023-12-14T11:04:57;100977.25;;;3.89;76.72
83697;BME280;73677;54.530;18.484;2023-12-14T11:07:44;100988.84;;;3.82;77.18
83697;BME280;73677;54.530;18.484;2023-12-14T11:10:13;100991.41;;;3.84;77.89
83697;BME280;73677;54.530;18.484;2023-12-14T11:12:57;100988.84;;;3.82;78.02
83697;BME280;73677;54.530;18.484;2023-12-14T11:15:29;100992.38;;;3.91;77.81
83697;BME280;73677;54.530;18.484;2023-12-14T11:18:20;100993.03;;;3.93;77.52
83697;BME280;73677;54.530;18.484;2023-12-14T11:20:51;100994.38;;;3.97;76.78
83697;BME280;73677;54.530;18.484;2023-12-14T11:23:30;100994.19;;;3.99;77.07
83697;BME280;73677;54.530;18.484;2023-12-14T11:26:00;100998.13;;;3.96;77.90
83697;BME280;73677;54.530;18.484;2023-12-14T11:28:35;101011.59;;;3.90;77.20
83697;BME280;73677;54.530;18.484;2023-12-14T11:31:04;101001.09;;;3.87;77.77
83697;BME280;73677;54.530;18.484;2023-12-14T11:33:35;100995.91;;;3.69;77.57
83697;BME280;73677;54.530;18.484;2023-12-14T11:36:11;101015.53;;;3.87;77.62
83697;BME280;73677;54.530;18.484;2023-12-14T11:38:42;101016.53;;;3.86;76.86
83697;BME280;73677;54.530;18.484;2023-12-14T11:41:11;101015.47;;;3.95;77.00
83697;BME280;73677;54.530;18.484;2023-12-14T11:43:42;101020.91;;;3.95;77.18
83697;BME280;73677;54.530;18.484;2023-12-14T11:46:12;101020.06;;;3.95;78.20
83697;BME280;73677;54.530;18.484;2023-12-14T11:48:44;101031.97;;;3.94;78.67
83697;BME280;73677;54.530;18.484;2023-12-14T11:51:12;101030.59;;;3.98;78.58
83697;BME280;73677;54.530;18.484;2023-12-14T11:53:44;101023.63;;;3.95;77.72
83697;BME280;73677;54.530;18.484;2023-12-14T11:56:12;101019.03;;;3.96;77.65
83697;BME280;73677;54.530;18.484;2023-12-14T11:58:45;100996.91;;;3.76;77.90
83697;BME280;73677;54.530;18.484;2023-12-14T12:01:15;101029.78;;;3.89;77.09
83697;BME280;73677;54.530;18.484;2023-12-14T12:03:45;101039.31;;;3.85;78.46
83697;BME280;73677;54.530;18.484;2023-12-14T12:06:20;101038.63;;;3.83;78.84
83697;BME280;73677;54.530;18.484;2023-12-14T12:08:51;101031.84;;;3.87;79.11
83697;BME280;73677;54.530;18.484;2023-12-14T12:11:20;101034.28;;;3.74;78.12
83697;BME280;73677;54.530;18.484;2023-12-14T12:13:52;101032.41;;;3.74;79.18
83697;BME280;73677;54.530;18.484;2023-12-14T12:16:21;101040.19;;;3.77;80.21
83697;BME280;73677;54.530;18.484;2023-12-14T12:18:50;101047.34;;;3.78;80.45
83697;BME280;73677;54.530;18.484;2023-12-14T12:21:19;101045.63;;;3.77;79.79
83697;BME280;73677;54.530;18.484;2023-12-14T12:23:48;101049.56;;;3.75;80.72
83697;BME280;73677;54.530;18.484;2023-12-14T12:26:16;101057.75;;;3.67;80.76
83697;BME280;73677;54.530;18.484;2023-12-14T12:28:45;101058.78;;;3.66;81.53
83697;BME280;73677;54.530;18.484;2023-12-14T12:31:17;100993.53;;;3.27;81.43
83697;BME280;73677;54.530;18.484;2023-12-14T12:33:46;101052.34;;;3.59;80.85
83697;BME280;73677;54.530;18.484;2023-12-14T12:36:15;101049.63;;;3.59;80.82
83697;BME280;73677;54.530;18.484;2023-12-14T12:38:46;101063.00;;;3.68;81.73
83697;BME280;73677;54.530;18.484;2023-12-14T12:41:15;101066.75;;;3.67;81.83
83697;BME280;73677;54.530;18.484;2023-12-14T12:43:45;101070.69;;;3.65;81.24
83697;BME280;73677;54.530;18.484;2023-12-14T12:46:14;101073.41;;;3.57;82.04
83697;BME280;73677;54.530;18.484;2023-12-14T12:48:45;101070.72;;;3.49;81.71
83697;BME280;73677;54.530;18.484;2023-12-14T12:51:14;101067.81;;;3.58;80.58
83697;BME280;73677;54.530;18.484;2023-12-14T12:53:43;101073.94;;;3.52;79.45
83697;BME280;73677;54.530;18.484;2023-12-14T12:56:13;101068.00;;;3.49;80.14
83697;BME280;73677;54.530;18.484;2023-12-14T12:58:42;101069.06;;;3.31;79.78
83697;BME280;73677;54.530;18.484;2023-12-14T13:01:11;101067.22;;;3.32;80.79
83697;BME280;73677;54.530;18.484;2023-12-14T13:03:40;101072.63;;;3.32;80.23